Time;durP1;ratioP1;P1;durP2;ratioP2;P2;SDS_P1;SDS_P2;PMS_P1;PMS_P2;Temp;Humidity;BMP_temperature;BMP_pressure;BME280_temperature;BME280_humidity;BME280_pressure;Samples;Min_cycle;Max_cycle;Signal;HPM_P1;HPM_P2
2023/01/09 00:01:49;;;;;;;4.73;2.00;;;7.50;99.90;;;;;;5078723;28;40201;-82
2023/01/09 00:04:15;;;;;;;5.00;1.50;;;7.50;99.90;;;;;;5079040;28;38593;-82
2023/01/09 00:06:52;;;;;;;1.43;1.17;;;7.50;99.90;;;;;;5073500;28;38142;-83
2023/01/09 00:09:22;;;;;;;9.43;1.53;;;7.30;99.90;;;;;;5069926;28;37132;-82
2023/01/09 00:11:49;;;;;;;9.23;1.67;;;7.40;99.90;;;;;;5076667;28;39762;-83
2023/01/09 00:14:16;;;;;;;2.70;1.40;;;7.40;99.90;;;;;;5091779;28;37380;-81
2023/01/09 00:16:42;;;;;;;6.77;1.70;;;7.40;99.90;;;;;;5064020;28;37418;-82
2023/01/09 00:19:08;;;;;;;4.50;1.53;;;7.40;99.90;;;;;;5072198;28;36119;-83
2023/01/09 00:21:35;;;;;;;4.50;1.30;;;7.30;99.90;;;;;;5070228;28;39364;-82
2023/01/09 00:24:04;;;;;;;7.67;1.87;;;7.30;99.90;;;;;;5064564;28;37860;-82
2023/01/09 00:26:30;;;;;;;5.47;1.50;;;7.30;99.90;;;;;;5067507;28;47092;-82
2023/01/09 00:28:57;;;;;;;5.63;1.70;;;7.30;99.90;;;;;;5086292;28;36824;-83
2023/01/09 00:31:23;;;;;;;6.47;1.60;;;7.20;99.90;;;;;;5066490;28;40153;-82
2023/01/09 00:33:55;;;;;;;5.83;1.80;;;7.20;99.90;;;;;;5070610;28;38882;-82
2023/01/09 00:36:21;;;;;;;5.77;2.00;;;7.20;99.90;;;;;;5063329;28;36344;-83
2023/01/09 00:38:47;;;;;;;5.60;1.90;;;7.20;99.90;;;;;;5072496;28;37053;-83
2023/01/09 00:41:18;;;;;;;6.77;2.00;;;7.10;99.90;;;;;;5062666;28;38306;-81
2023/01/09 00:43:50;;;;;;;11.13;2.63;;;7.10;99.90;;;;;;5068341;28;37760;-83
2023/01/09 00:46:19;;;;;;;6.43;1.80;;;7.10;99.90;;;;;;5065197;28;36602;-82
2023/01/09 00:48:48;;;;;;;13.17;2.77;;;7.00;99.90;;;;;;5070130;28;37546;-83
2023/01/09 00:51:15;;;;;;;3.50;1.60;;;7.00;99.90;;;;;;5072746;28;37895;-82
2023/01/09 00:53:42;;;;;;;5.70;2.33;;;7.00;99.90;;;;;;5070928;28;39936;-82
2023/01/09 00:56:13;;;;;;;10.03;2.73;;;7.00;99.90;;;;;;5071321;28;37841;-83
2023/01/09 00:58:40;;;;;;;5.20;2.30;;;7.00;99.90;;;;;;5083949;28;38030;-83
2023/01/09 01:01:06;;;;;;;7.20;2.47;;;7.00;99.90;;;;;;5072457;28;37686;-83
2023/01/09 01:03:33;;;;;;;7.27;2.60;;;7.10;99.90;;;;;;5073637;28;38176;-83
2023/01/09 01:08:45;;;;;;;8.93;2.10;;;7.20;99.90;;;;;;5072889;28;49291;-84
2023/01/09 01:11:11;;;;;;;8.53;2.03;;;7.30;99.90;;;;;;5075989;28;38887;-83
2023/01/09 01:13:40;;;;;;;7.63;2.43;;;7.40;99.90;;;;;;5072842;28;37535;-83
2023/01/09 01:16:08;;;;;;;8.20;2.00;;;7.50;99.90;;;;;;5079411;28;36537;-83
2023/01/09 01:18:35;;;;;;;6.53;2.47;;;7.50;99.90;;;;;;5077759;28;37056;-84
2023/01/09 01:21:05;;;;;;;8.60;2.87;;;7.50;99.90;;;;;;5081523;28;37347;-84
2023/01/09 01:23:31;;;;;;;5.63;2.50;;;7.50;99.90;;;;;;5077172;28;47154;-83
2023/01/09 01:26:03;;;;;;;6.03;3.13;;;7.50;99.90;;;;;;5098981;28;36372;-84
2023/01/09 01:28:29;;;;;;;9.00;3.05;;;7.50;99.90;;;;;;5076556;28;46053;-83
2023/01/09 01:30:55;;;;;;;9.07;2.67;;;7.40;99.90;;;;;;5076445;28;37291;-83
2023/01/09 01:33:22;;;;;;;9.20;2.87;;;7.40;99.90;;;;;;5076961;28;38349;-84
2023/01/09 01:35:48;;;;;;;5.97;2.73;;;7.40;99.90;;;;;;5077920;28;36199;-83
2023/01/09 01:38:14;;;;;;;8.93;3.50;;;7.30;99.90;;;;;;5072819;28;37094;-84
2023/01/09 01:40:40;;;;;;;5.60;3.03;;;7.30;99.90;;;;;;5074405;28;37373;-83
2023/01/09 01:43:11;;;;;;;13.57;4.07;;;7.30;99.90;;;;;;5078083;28;38742;-84
2023/01/09 01:45:39;;;;;;;10.80;3.70;;;7.30;99.90;;;;;;5075317;28;37406;-83
2023/01/09 01:48:15;;;;;;;14.53;3.97;;;7.30;99.90;;;;;;5075437;28;36778;-83
2023/01/09 01:50:58;;;;;;;13.27;3.90;;;7.30;99.90;;;;;;5091508;28;37704;-83
2023/01/09 01:53:37;;;;;;;7.03;3.83;;;7.20;99.90;;;;;;5076428;28;38975;-84
2023/01/09 01:56:07;;;;;;;13.70;3.90;;;7.20;99.90;;;;;;5073957;28;37756;-83
2023/01/09 01:58:40;;;;;;;11.77;4.30;;;7.20;99.90;;;;;;5065774;28;37164;-83
2023/01/09 02:03:42;;;;;;;10.57;3.80;;;7.20;99.90;;;;;;5112532;22;20391;-80
2023/01/09 02:06:09;;;;;;;10.77;3.97;;;7.30;99.90;;;;;;5081199;28;36167;-80
2023/01/09 02:08:36;;;;;;;8.90;3.80;;;7.20;99.90;;;;;;5067261;28;36014;-80
2023/01/09 02:11:03;;;;;;;12.97;4.13;;;7.20;99.90;;;;;;5087187;28;39360;-80
2023/01/09 02:13:31;;;;;;;9.93;3.90;;;7.20;99.90;;;;;;5081637;28;37907;-80
2023/01/09 02:16:05;;;;;;;9.90;4.00;;;7.20;99.90;;;;;;5061036;28;38381;-80
2023/01/09 02:19:18;;;;;;;19.17;5.93;;;7.20;99.90;;;;;;5047703;28;47084;-80
2023/01/09 02:22:28;;;;;;;10.73;4.43;;;7.20;99.90;;;;;;5053962;28;46760;-80
2023/01/09 02:25:32;;;;;;;9.97;4.27;;;7.10;99.90;;;;;;5082181;28;49386;-80
2023/01/09 02:28:17;;;;;;;;;;;7.10;99.90;;;;;;5066463;28;47992;-80
2023/01/09 02:30:48;;;;;;;12.87;4.80;;;7.10;99.90;;;;;;5060921;28;47311;-80
2023/01/09 02:33:33;;;;;;;9.45;3.42;;;7.00;99.90;;;;;;5083443;28;36063;-80
2023/01/09 02:36:14;;;;;;;12.60;4.03;;;7.00;99.90;;;;;;5066592;28;38868;-80
2023/01/09 02:39:16;;;;;;;7.53;3.43;;;7.00;99.90;;;;;;5049460;28;47375;-80
2023/01/09 02:41:53;;;;;;;10.60;3.60;;;7.00;99.90;;;;;;5017237;28;47120;-80
2023/01/09 02:44:29;;;;;;;12.37;3.77;;;7.00;99.90;;;;;;5051955;28;39071;-80
2023/01/09 02:47:00;;;;;;;8.23;3.77;;;7.00;99.90;;;;;;5063551;28;38341;-80
2023/01/09 02:49:27;;;;;;;13.93;3.40;;;7.00;99.90;;;;;;5073917;28;36316;-80
2023/01/09 02:52:07;;;;;;;12.83;3.30;;;7.00;99.90;;;;;;5070335;28;36148;-80
2023/01/09 02:54:33;;;;;;;12.00;3.63;;;7.00;99.90;;;;;;5064017;28;48538;-80
2023/01/09 02:57:25;;;;;;;8.63;3.10;;;7.00;99.90;;;;;;5065160;28;37250;-81
2023/01/09 03:00:01;;;;;;;7.90;2.77;;;7.00;99.90;;;;;;5064034;28;47209;-80
2023/01/09 03:02:56;;;;;;;8.13;2.73;;;7.00;99.90;;;;;;5082948;28;37061;-80
2023/01/09 03:05:33;;;;;;;8.83;2.83;;;7.00;99.90;;;;;;5082612;28;39065;-80
2023/01/09 03:08:10;;;;;;;8.97;2.73;;;7.10;99.90;;;;;;5085047;28;39149;-81
2023/01/09 03:10:59;;;;;;;8.07;3.13;;;7.10;99.90;;;;;;5061039;28;47034;-80
2023/01/09 03:13:30;;;;;;;9.73;2.63;;;7.10;99.90;;;;;;5050297;28;36120;-80
2023/01/09 03:15:59;;;;;;;10.93;4.17;;;7.10;99.90;;;;;;5056237;28;37493;-80
2023/01/09 03:18:28;;;;;;;9.40;2.40;;;7.10;99.90;;;;;;5086137;28;38403;-80
2023/01/09 03:20:54;;;;;;;15.17;2.60;;;7.20;99.90;;;;;;5083328;28;38029;-79
2023/01/09 03:23:21;;;;;;;13.67;2.50;;;7.20;99.90;;;;;;5063930;28;36159;-80
2023/01/09 03:25:47;;;;;;;13.20;2.90;;;7.20;99.90;;;;;;5085516;28;38736;-81
2023/01/09 03:28:26;;;;;;;11.43;2.67;;;7.20;99.90;;;;;;5070999;28;36909;-81
2023/01/09 03:30:53;;;;;;;9.93;2.80;;;7.30;99.90;;;;;;5088766;27;39591;-80
2023/01/09 03:33:19;;;;;;;11.43;2.13;;;7.30;99.90;;;;;;5065127;28;36177;-80
2023/01/09 03:35:46;;;;;;;6.73;1.90;;;7.30;99.90;;;;;;5067312;28;37562;-80
2023/01/09 03:38:12;;;;;;;8.13;2.00;;;7.40;99.90;;;;;;5072026;28;37377;-79
2023/01/09 03:40:39;;;;;;;7.80;2.63;;;7.30;99.90;;;;;;5069959;28;37975;-79
2023/01/09 03:43:05;;;;;;;6.10;1.90;;;7.40;99.90;;;;;;5084934;28;37152;-80
2023/01/09 03:45:31;;;;;;;14.37;2.43;;;7.40;99.90;;;;;;5061682;28;39388;-80
2023/01/09 03:47:58;;;;;;;11.30;2.43;;;7.40;99.90;;;;;;5062481;28;37810;-80
2023/01/09 03:50:24;;;;;;;6.10;2.00;;;7.40;99.90;;;;;;5057219;28;36113;-79
2023/01/09 03:52:51;;;;;;;10.77;2.57;;;7.40;99.90;;;;;;5059638;28;37006;-80
2023/01/09 03:55:17;;;;;;;6.87;2.33;;;7.40;99.90;;;;;;5069131;28;39072;-80
2023/01/09 03:57:43;;;;;;;12.57;2.13;;;7.30;99.90;;;;;;5090374;27;38466;-80
2023/01/09 04:00:09;;;;;;;6.40;1.70;;;7.30;99.90;;;;;;5078149;27;37676;-79
2023/01/09 04:02:35;;;;;;;10.20;1.93;;;7.30;99.90;;;;;;5063589;28;35821;-80
2023/01/09 04:05:02;;;;;;;11.57;2.20;;;7.40;99.90;;;;;;5067944;28;38026;-80
2023/01/09 04:07:28;;;;;;;7.33;1.87;;;7.50;99.90;;;;;;5082893;27;38391;-80
2023/01/09 04:09:54;;;;;;;6.60;2.07;;;7.40;99.90;;;;;;5077190;28;37775;-80
2023/01/09 04:12:20;;;;;;;7.37;2.03;;;7.50;99.90;;;;;;5060033;28;35135;-80
2023/01/09 04:14:46;;;;;;;9.80;2.33;;;7.50;99.90;;;;;;5065679;28;39250;-80
2023/01/09 04:17:12;;;;;;;7.97;1.87;;;7.50;99.90;;;;;;5080559;28;39606;-80
2023/01/09 04:19:38;;;;;;;8.93;1.90;;;7.50;99.90;;;;;;5083331;28;37190;-79
2023/01/09 04:22:05;;;;;;;5.33;1.80;;;7.50;99.90;;;;;;5082140;28;37462;-80
2023/01/09 04:24:31;;;;;;;9.43;2.17;;;7.50;99.90;;;;;;5082015;28;38295;-81
2023/01/09 04:26:57;;;;;;;10.87;3.23;;;7.60;99.90;;;;;;5068014;28;37325;-80
2023/01/09 04:29:23;;;;;;;13.27;2.73;;;7.60;99.90;;;;;;5094483;27;36937;-80
2023/01/09 04:31:49;;;;;;;7.37;2.27;;;7.60;99.90;;;;;;5063927;28;35858;-80
2023/01/09 04:34:16;;;;;;;4.80;1.80;;;7.60;99.90;;;;;;5059946;27;39280;-79
2023/01/09 04:36:42;;;;;;;8.73;1.70;;;7.70;99.90;;;;;;5056507;28;39035;-81
2023/01/09 04:39:08;;;;;;;11.73;1.87;;;7.70;99.90;;;;;;5055695;28;38157;-81
2023/01/09 04:41:50;;;;;;;9.33;2.13;;;7.80;99.90;;;;;;5092346;28;37190;-78
2023/01/09 04:44:21;;;;;;;9.47;2.27;;;7.70;99.90;;;;;;5090368;28;38776;-81
2023/01/09 04:46:48;;;;;;;10.50;2.30;;;7.80;99.90;;;;;;5069078;28;37205;-79
2023/01/09 04:49:14;;;;;;;11.33;2.73;;;7.80;99.90;;;;;;5078159;28;37581;-80
2023/01/09 04:51:40;;;;;;;6.93;1.60;;;7.80;99.90;;;;;;5092886;28;35586;-80
2023/01/09 04:54:07;;;;;;;9.63;2.97;;;7.80;99.90;;;;;;5067291;27;37763;-79
2023/01/09 04:56:33;;;;;;;10.20;2.80;;;7.80;99.90;;;;;;5088020;28;38770;-79
2023/01/09 04:58:59;;;;;;;8.03;2.20;;;7.80;99.90;;;;;;5090302;27;38527;-80
2023/01/09 05:01:25;;;;;;;12.27;2.80;;;7.70;99.90;;;;;;5085654;28;37765;-79
2023/01/09 05:03:51;;;;;;;6.93;2.53;;;7.70;99.90;;;;;;5069341;28;38905;-80
2023/01/09 05:06:17;;;;;;;15.80;3.20;;;7.70;99.90;;;;;;5082836;28;38970;-80
2023/01/09 05:08:43;;;;;;;11.60;2.60;;;7.70;99.90;;;;;;5067063;28;36694;-80
2023/01/09 05:11:09;;;;;;;8.23;2.70;;;7.70;99.90;;;;;;5086343;28;37750;-78
2023/01/09 05:13:35;;;;;;;13.77;2.57;;;7.70;99.90;;;;;;5070493;28;39021;-80
2023/01/09 05:16:02;;;;;;;12.17;2.70;;;7.70;99.90;;;;;;5084341;28;38287;-79
2023/01/09 05:18:28;;;;;;;9.23;2.03;;;7.70;99.90;;;;;;5077647;28;39204;-80
2023/01/09 05:20:54;;;;;;;15.87;2.40;;;7.70;99.90;;;;;;5081963;28;37321;-80
2023/01/09 05:23:20;;;;;;;14.60;2.30;;;7.70;99.90;;;;;;5042983;28;39783;-80
2023/01/09 05:25:46;;;;;;;9.60;2.20;;;7.70;99.90;;;;;;5068078;28;39082;-79
2023/01/09 05:28:12;;;;;;;10.33;2.23;;;7.70;99.90;;;;;;5053347;28;37799;-79
2023/01/09 05:30:38;;;;;;;8.60;2.10;;;7.70;99.90;;;;;;5052005;28;37267;-77
2023/01/09 05:33:04;;;;;;;11.73;2.07;;;7.60;99.90;;;;;;5062329;28;37865;-77
2023/01/09 05:35:31;;;;;;;13.17;2.90;;;7.60;99.90;;;;;;5057979;28;38261;-79
2023/01/09 05:37:57;;;;;;;11.60;2.33;;;7.70;99.90;;;;;;5064386;28;37634;-79
2023/01/09 05:40:23;;;;;;;14.27;2.47;;;7.60;99.90;;;;;;5062492;28;38097;-79
2023/01/09 05:42:49;;;;;;;11.70;2.57;;;7.70;99.90;;;;;;5068213;28;39838;-78
2023/01/09 05:45:15;;;;;;;17.37;2.93;;;7.70;99.90;;;;;;5050216;28;37696;-79
2023/01/09 05:47:44;;;;;;;13.57;2.83;;;7.70;99.90;;;;;;5048937;28;37587;-79
2023/01/09 05:50:11;;;;;;;13.63;2.50;;;7.70;99.90;;;;;;5060919;28;37291;-79
2023/01/09 05:52:37;;;;;;;12.20;2.40;;;7.70;99.90;;;;;;5051635;28;37755;-78
2023/01/09 05:55:04;;;;;;;10.90;2.70;;;7.70;99.90;;;;;;5044167;28;38515;-78
2023/01/09 05:57:31;;;;;;;11.77;3.30;;;7.70;99.90;;;;;;5065775;28;47592;-78
2023/01/09 05:59:57;;;;;;;13.00;2.50;;;7.70;99.90;;;;;;5078642;28;38134;-79
2023/01/09 06:02:23;;;;;;;18.70;3.97;;;7.70;99.90;;;;;;5061372;28;38459;-78
2023/01/09 06:04:52;;;;;;;10.37;2.77;;;7.70;99.90;;;;;;5049798;28;39788;-79
2023/01/09 06:07:18;;;;;;;18.93;2.93;;;7.70;99.90;;;;;;5070912;28;38396;-79
2023/01/09 06:09:44;;;;;;;12.50;3.27;;;7.70;99.90;;;;;;5081410;27;37090;-79
2023/01/09 06:12:10;;;;;;;10.20;3.20;;;7.70;99.90;;;;;;5075111;28;38828;-80
2023/01/09 06:14:36;;;;;;;14.43;3.07;;;7.70;99.90;;;;;;5082058;28;38218;-79
2023/01/09 06:17:02;;;;;;;18.33;2.83;;;7.70;99.90;;;;;;5063913;28;36414;-78
2023/01/09 06:19:28;;;;;;;12.37;3.23;;;7.70;99.90;;;;;;5079187;28;49139;-79
2023/01/09 06:21:54;;;;;;;10.00;3.10;;;7.70;99.90;;;;;;5057379;28;37327;-78
2023/01/09 06:24:20;;;;;;;12.20;2.80;;;7.70;99.90;;;;;;5068833;28;38559;-79
2023/01/09 06:26:46;;;;;;;11.63;3.30;;;7.70;99.90;;;;;;5064514;28;36817;-79
2023/01/09 06:29:13;;;;;;;8.00;2.37;;;7.70;99.90;;;;;;5082188;28;37305;-78
2023/01/09 06:31:39;;;;;;;11.63;3.37;;;7.70;99.90;;;;;;5076178;28;37930;-78
2023/01/09 06:34:05;;;;;;;8.70;2.77;;;7.80;99.90;;;;;;5094401;28;38652;-78
2023/01/09 06:36:31;;;;;;;12.80;3.00;;;7.70;99.90;;;;;;5064257;28;37005;-78
2023/01/09 06:38:57;;;;;;;6.93;2.43;;;7.80;99.90;;;;;;5078373;28;37342;-78
2023/01/09 06:41:23;;;;;;;11.60;2.43;;;7.80;99.90;;;;;;5081383;27;38517;-78
2023/01/09 06:43:49;;;;;;;10.60;1.77;;;7.90;99.90;;;;;;5070206;28;37639;-77
2023/01/09 06:46:15;;;;;;;8.17;1.13;;;7.90;99.90;;;;;;5053539;28;36362;-78
2023/01/09 06:48:41;;;;;;;6.07;1.03;;;7.90;99.90;;;;;;5051231;28;35190;-78
2023/01/09 06:51:07;;;;;;;4.13;0.80;;;7.90;99.90;;;;;;5080331;27;37400;-78
2023/01/09 06:53:33;;;;;;;5.03;0.73;;;7.90;99.90;;;;;;5039547;28;37123;-79
2023/01/09 06:56:01;;;;;;;7.33;1.03;;;7.80;99.90;;;;;;5047571;28;38177;-79
2023/01/09 06:58:27;;;;;;;3.47;0.60;;;7.80;99.90;;;;;;5077472;27;46960;-79
2023/01/09 07:00:55;;;;;;;5.03;0.50;;;7.80;99.90;;;;;;5068849;28;37874;-79
2023/01/09 07:03:21;;;;;;;3.83;0.70;;;7.80;99.90;;;;;;5075621;28;38899;-78
2023/01/09 07:05:48;;;;;;;6.23;0.60;;;7.80;99.90;;;;;;5074204;28;38029;-78
2023/01/09 07:08:15;;;;;;;6.87;1.03;;;7.80;99.90;;;;;;5064273;27;36138;-78
2023/01/09 07:10:42;;;;;;;5.87;0.70;;;7.80;99.90;;;;;;5076977;27;39818;-78
2023/01/09 07:13:09;;;;;;;6.63;0.80;;;7.80;99.90;;;;;;5078512;27;38057;-78
2023/01/09 07:15:35;;;;;;;3.17;0.67;;;7.80;99.90;;;;;;5063642;28;38560;-79
2023/01/09 07:18:02;;;;;;;7.53;1.13;;;7.80;99.90;;;;;;5080748;27;37165;-77
2023/01/09 07:20:28;;;;;;;11.50;1.40;;;7.90;99.90;;;;;;5054095;28;47274;-77
2023/01/09 07:22:54;;;;;;;8.73;1.27;;;8.00;99.90;;;;;;5059997;28;37782;-78
2023/01/09 07:25:20;;;;;;;13.27;1.30;;;8.00;99.90;;;;;;5046234;28;37999;-78
2023/01/09 07:27:47;;;;;;;12.70;1.17;;;8.00;99.90;;;;;;5066270;27;36824;-78
2023/01/09 07:30:13;;;;;;;9.43;1.47;;;8.10;99.90;;;;;;5074588;27;38989;-79
2023/01/09 07:32:40;;;;;;;15.20;1.57;;;8.10;99.90;;;;;;5075828;28;39375;-78
2023/01/09 07:35:07;;;;;;;11.73;1.40;;;8.20;99.90;;;;;;5073815;27;38713;-77
2023/01/09 07:37:33;;;;;;;14.67;1.90;;;8.20;99.90;;;;;;5080616;27;36720;-79
2023/01/09 07:39:59;;;;;;;14.23;1.43;;;8.30;99.90;;;;;;5061542;28;37619;-78
2023/01/09 07:42:26;;;;;;;18.80;1.97;;;8.30;99.90;;;;;;5077625;27;36914;-77
2023/01/09 07:44:52;;;;;;;10.63;1.50;;;8.30;99.90;;;;;;5065602;28;36766;-77
2023/01/09 07:47:18;;;;;;;16.63;2.20;;;8.30;99.90;;;;;;5062536;28;35197;-78
2023/01/09 07:49:44;;;;;;;14.13;2.10;;;8.40;99.90;;;;;;5062112;28;37847;-78
2023/01/09 07:52:10;;;;;;;17.10;2.17;;;8.40;99.90;;;;;;5059944;27;38056;-78
2023/01/09 07:54:36;;;;;;;13.97;2.13;;;8.40;99.90;;;;;;5075757;28;37432;-78
2023/01/09 07:57:02;;;;;;;19.67;2.23;;;8.40;99.90;;;;;;5076988;27;37522;-77
2023/01/09 07:59:28;;;;;;;17.50;2.47;;;8.40;99.90;;;;;;5076205;28;38261;-78
2023/01/09 08:01:55;;;;;;;18.97;3.27;;;8.40;99.90;;;;;;5074431;28;37629;-78
2023/01/09 08:04:21;;;;;;;14.10;2.30;;;8.50;99.90;;;;;;5048708;28;36658;-78
2023/01/09 08:06:47;;;;;;;16.97;2.27;;;8.50;99.90;;;;;;5056947;28;36785;-78
2023/01/09 08:09:14;;;;;;;24.77;2.50;;;8.50;99.90;;;;;;5056712;28;39233;-79
2023/01/09 08:11:41;;;;;;;12.87;2.40;;;8.50;99.90;;;;;;5059241;27;38949;-77
2023/01/09 08:14:07;;;;;;;17.73;2.20;;;8.50;99.90;;;;;;5048432;28;37442;-78
2023/01/09 08:16:33;;;;;;;19.20;3.57;;;8.50;99.90;;;;;;5052697;28;36743;-76
2023/01/09 08:18:59;;;;;;;26.83;3.60;;;8.60;99.90;;;;;;5055648;28;38465;-77
2023/01/09 08:21:25;;;;;;;20.33;2.57;;;8.60;99.90;;;;;;5041088;28;38366;-76
2023/01/09 08:23:51;;;;;;;31.13;3.00;;;8.60;99.90;;;;;;5038518;28;38316;-77
2023/01/09 08:26:18;;;;;;;20.13;3.20;;;8.60;99.90;;;;;;5052134;28;36218;-77
2023/01/09 08:28:45;;;;;;;18.53;2.57;;;8.60;99.90;;;;;;5054726;28;38592;-76
2023/01/09 08:31:11;;;;;;;20.13;3.33;;;8.60;99.90;;;;;;5045688;28;37582;-77
2023/01/09 08:33:37;;;;;;;19.73;3.20;;;8.70;99.90;;;;;;5058128;28;36461;-78
2023/01/09 08:36:03;;;;;;;20.07;3.07;;;8.60;99.90;;;;;;5057852;27;35934;-77
2023/01/09 08:38:29;;;;;;;20.53;2.70;;;8.70;99.90;;;;;;5060516;27;38255;-78
2023/01/09 08:40:55;;;;;;;16.47;2.50;;;8.70;99.90;;;;;;5059961;28;38113;-78
2023/01/09 08:49:02;;;;;;;22.27;2.77;;;8.70;99.90;;;;;;5054192;27;38138;-76
2023/01/09 08:51:28;;;;;;;21.10;2.53;;;8.70;99.90;;;;;;5043613;28;37005;-78
2023/01/09 08:53:55;;;;;;;22.93;2.70;;;8.70;99.90;;;;;;5046463;27;39795;-78
2023/01/09 08:56:21;;;;;;;20.20;3.20;;;8.80;99.90;;;;;;5056085;28;37764;-78
2023/01/09 08:58:47;;;;;;;20.40;2.53;;;8.70;99.90;;;;;;5056214;28;39747;-78
2023/01/09 09:01:13;;;;;;;20.00;2.40;;;8.80;99.90;;;;;;5052547;28;38407;-79
2023/01/09 09:03:39;;;;;;;11.47;2.00;;;8.70;99.90;;;;;;5042099;28;36857;-78
2023/01/09 09:06:05;;;;;;;10.73;1.43;;;8.70;99.90;;;;;;5037111;28;35897;-77
2023/01/09 09:08:31;;;;;;;9.57;1.97;;;8.60;99.90;;;;;;5024099;28;37809;-78
2023/01/09 09:11:00;;;;;;;8.90;1.77;;;8.50;99.90;;;;;;5028017;28;38274;-76
2023/01/09 09:13:26;;;;;;;5.43;1.43;;;8.40;99.90;;;;;;5051446;28;37819;-78
2023/01/09 09:15:52;;;;;;;10.83;1.70;;;8.30;99.90;;;;;;5051437;28;37973;-78
2023/01/09 09:18:18;;;;;;;7.93;1.80;;;8.30;99.90;;;;;;5029918;28;37805;-79
2023/01/09 09:20:44;;;;;;;13.03;1.90;;;8.30;99.90;;;;;;5025485;28;37907;-78
2023/01/09 09:23:10;;;;;;;19.50;2.70;;;8.30;99.90;;;;;;5042317;28;38385;-78
2023/01/09 09:25:37;;;;;;;15.57;2.47;;;8.30;99.90;;;;;;5030132;28;36932;-77
2023/01/09 09:28:03;;;;;;;14.00;2.33;;;8.40;99.90;;;;;;5071275;28;37721;-76
2023/01/09 09:30:29;;;;;;;17.77;2.67;;;8.50;99.90;;;;;;5055279;28;39130;-77
2023/01/09 09:32:55;;;;;;;14.93;2.90;;;8.50;99.90;;;;;;5052799;28;36824;-78
2023/01/09 09:35:21;;;;;;;13.67;2.53;;;8.60;99.90;;;;;;5050492;28;37336;-79
2023/01/09 09:37:56;;;;;;;23.93;2.23;;;8.60;99.90;;;;;;5057861;27;38982;-79
2023/01/09 09:40:41;;;;;;;16.53;2.83;;;8.70;99.90;;;;;;5055237;28;37527;-79
2023/01/09 09:46:40;;;;;;;11.23;2.10;;;8.70;99.90;;;;;;5050009;28;37070;-79
2023/01/09 09:49:18;;;;;;;14.47;2.17;;;8.50;99.90;;;;;;5051851;28;39501;-77
2023/01/09 09:52:16;;;;;;;9.97;1.60;;;8.40;99.90;;;;;;5025129;28;36952;-78
2023/01/09 09:54:48;;;;;;;8.23;1.77;;;8.40;99.90;;;;;;5052488;28;48192;-79
2023/01/09 09:57:21;;;;;;;15.45;2.30;;;8.30;99.90;;;;;;5055344;28;36727;-78
2023/01/09 09:59:50;;;;;;;;;;;8.40;99.90;;;;;;5048023;28;37711;-79
2023/01/09 10:02:15;;;;;;;19.80;2.77;;;8.50;99.90;;;;;;5028471;28;37972;-78
2023/01/09 10:04:47;;;;;;;13.50;2.20;;;8.60;99.90;;;;;;5045944;28;38492;-78
2023/01/09 10:07:20;;;;;;;13.10;2.27;;;8.70;99.90;;;;;;5031465;28;37415;-78
2023/01/09 10:09:54;;;;;;;21.60;3.30;;;8.70;99.90;;;;;;5047046;28;37452;-77
2023/01/09 10:12:28;;;;;;;12.17;1.93;;;8.70;99.90;;;;;;5050872;28;38526;-78
2023/01/09 10:15:01;;;;;;;18.27;2.60;;;8.70;99.90;;;;;;5048172;28;36973;-77
2023/01/09 10:18:11;;;;;;;16.73;2.73;;;8.60;99.90;;;;;;5055576;28;36981;-77
2023/01/09 10:20:55;;;;;;;15.93;2.30;;;8.60;99.90;;;;;;5040770;28;48142;-76
2023/01/09 10:23:44;;;;;;;17.10;2.83;;;8.60;99.90;;;;;;5071738;27;37973;-77
2023/01/09 10:26:26;;;;;;;19.03;2.47;;;8.60;99.90;;;;;;5057015;28;38936;-77
2023/01/09 10:29:16;;;;;;;16.83;2.60;;;8.70;99.90;;;;;;5075440;27;36943;-77
2023/01/09 10:32:16;;;;;;;12.63;2.43;;;8.80;99.90;;;;;;5078870;27;48571;-77
2023/01/09 10:34:52;;;;;;;18.60;3.63;;;8.90;99.90;;;;;;5065537;28;47213;-78
2023/01/09 10:37:41;;;;;;;19.83;2.60;;;9.00;99.90;;;;;;5063249;28;35917;-79
2023/01/09 10:40:21;;;;;;;18.67;3.13;;;9.00;99.90;;;;;;5077708;27;37256;-79
2023/01/09 10:42:53;;;;;;;13.50;2.70;;;9.00;99.90;;;;;;5067295;28;37968;-79
2023/01/09 10:45:49;;;;;;;13.73;3.38;;;8.90;99.90;;;;;;5056824;27;38314;-79
2023/01/09 10:48:34;;;;;;;15.17;1.67;;;8.90;99.90;;;;;;5065049;28;37331;-79
2023/01/09 10:51:02;;;;;;;15.87;3.70;;;8.90;99.90;;;;;;5043265;28;36035;-78
2023/01/09 10:53:37;;;;;;;16.53;2.67;;;8.90;99.90;;;;;;5063573;28;46825;-78
2023/01/09 10:56:13;;;;;;;14.50;3.43;;;8.90;99.90;;;;;;5076003;28;38725;-77
2023/01/09 10:58:39;;;;;;;11.90;2.40;;;8.90;99.90;;;;;;5064260;28;38074;-78
2023/01/09 11:01:12;;;;;;;15.60;2.20;;;9.00;99.90;;;;;;5076013;28;36418;-81
2023/01/09 14:58:26;;;;;;;16.80;2.14;;;9.20;99.90;;;;;;6234905;22;25664088;-79
2023/01/09 15:09:55;;;;;;;8.87;1.77;;;9.00;99.90;;;;;;6295748;22;20027;-75
2023/01/09 15:15:01;;;;;;;13.60;2.10;;;9.00;99.90;;;;;;6338417;22;20504;-81
2023/01/09 15:17:34;;;;;;;10.60;1.50;;;8.90;99.90;;;;;;6370001;22;37774;-78
2023/01/09 15:20:05;;;;;;;11.50;2.20;;;8.80;99.90;;;;;;6355028;22;37938;-81
2023/01/09 15:22:33;;;;;;;14.27;1.87;;;8.70;99.90;;;;;;6336166;22;38963;-80
2023/01/09 15:25:22;;;;;;;11.20;2.47;;;8.70;99.90;;;;;;6363626;22;39526;-79
2023/01/09 15:27:56;;;;;;;12.40;1.93;;;8.60;99.90;;;;;;6336274;22;37603;-79
2023/01/09 15:30:33;;;;;;;10.20;1.70;;;8.60;99.90;;;;;;6358338;22;38115;-79
2023/01/09 15:33:09;;;;;;;17.33;2.73;;;8.60;99.90;;;;;;6356015;22;40022;-79
2023/01/09 15:35:40;;;;;;;10.53;1.80;;;8.70;99.90;;;;;;6333888;22;37337;-81
2023/01/09 15:38:13;;;;;;;20.27;2.53;;;8.70;99.90;;;;;;6366174;22;39175;-78
2023/01/09 15:40:39;;;;;;;13.10;2.47;;;8.70;99.90;;;;;;6362727;22;36889;-80
2023/01/09 15:43:06;;;;;;;12.43;1.77;;;8.70;99.90;;;;;;6337148;22;39012;-79
2023/01/09 15:45:40;;;;;;;17.13;2.37;;;8.70;99.90;;;;;;6323894;22;39363;-77
2023/01/09 15:48:22;;;;;;;8.53;1.70;;;8.70;99.90;;;;;;6326721;22;36946;-76
2023/01/09 15:50:59;;;;;;;9.93;1.87;;;8.70;99.90;;;;;;6354094;22;38058;-78
2023/01/09 15:53:27;;;;;;;10.97;2.10;;;8.70;99.90;;;;;;6328623;22;37892;-76
2023/01/09 15:56:11;;;;;;;15.47;1.80;;;8.70;99.90;;;;;;6339714;22;37455;-79
2023/01/09 15:58:40;;;;;;;7.73;1.50;;;8.60;99.90;;;;;;6335635;22;36493;-77
2023/01/09 16:01:24;;;;;;;10.23;1.83;;;8.50;99.90;;;;;;6355396;22;37052;-77
2023/01/09 16:03:51;;;;;;;8.93;1.87;;;8.40;99.90;;;;;;6328794;22;38170;-77
2023/01/09 16:06:24;;;;;;;7.67;1.60;;;8.30;99.90;;;;;;6328122;22;37250;-76
2023/01/09 16:08:54;;;;;;;11.50;2.73;;;8.30;99.90;;;;;;6334144;22;37765;-78
2023/01/09 16:11:26;;;;;;;12.10;1.80;;;8.20;99.90;;;;;;6344314;22;36166;-80
2023/01/09 16:13:54;;;;;;;10.90;2.23;;;8.20;99.90;;;;;;6336374;22;39151;-79
2023/01/09 16:16:31;;;;;;;7.63;1.80;;;8.20;99.90;;;;;;6312037;22;37626;-78
2023/01/09 16:18:58;;;;;;;9.30;2.40;;;8.20;99.90;;;;;;6296392;22;37307;-78
2023/01/09 16:21:34;;;;;;;9.83;2.07;;;8.10;99.90;;;;;;6301261;22;36215;-77
2023/01/09 16:24:12;;;;;;;12.37;2.37;;;8.10;99.90;;;;;;6326327;22;39835;-79
2023/01/09 16:26:39;;;;;;;10.13;2.03;;;8.20;99.90;;;;;;6300230;22;38335;-79
2023/01/09 16:29:37;;;;;;;9.33;2.03;;;8.20;99.90;;;;;;6309627;22;36665;-76
2023/01/09 16:32:16;;;;;;;5.40;1.67;;;8.20;99.90;;;;;;6338417;22;36609;-76
2023/01/09 16:34:43;;;;;;;8.60;2.30;;;8.30;99.90;;;;;;6306459;22;37875;-77
2023/01/09 16:37:11;;;;;;;8.87;2.23;;;8.30;99.90;;;;;;6308681;22;40286;-76
2023/01/09 16:39:37;;;;;;;7.83;2.10;;;8.40;99.90;;;;;;6307377;22;37658;-77
2023/01/09 16:44:52;;;;;;;10.60;2.10;;;8.60;99.90;;;;;;6337063;22;39965;-77
2023/01/09 16:47:18;;;;;;;11.03;2.13;;;8.60;99.90;;;;;;6310565;22;37415;-76
2023/01/09 16:49:44;;;;;;;13.27;2.37;;;8.60;99.90;;;;;;6337751;22;37447;-77
2023/01/09 16:52:15;;;;;;;11.73;2.50;;;8.50;99.90;;;;;;6306649;22;36027;-76
2023/01/09 16:54:42;;;;;;;14.00;3.50;;;8.40;99.90;;;;;;6302943;22;37789;-76
2023/01/09 16:57:12;;;;;;;23.63;6.87;;;8.50;99.90;;;;;;6307200;22;37049;-78
2023/01/09 16:59:38;;;;;;;13.67;3.63;;;8.50;99.90;;;;;;6306096;22;36243;-82
2023/01/09 17:02:19;;;;;;;8.37;2.70;;;8.50;99.90;;;;;;6329709;22;37994;-81
2023/01/09 17:04:45;;;;;;;10.37;2.23;;;8.40;99.90;;;;;;6315393;22;39585;-81
2023/01/09 17:07:15;;;;;;;13.33;2.10;;;8.40;99.90;;;;;;6322441;22;37374;-81
2023/01/09 17:09:41;;;;;;;12.77;2.73;;;8.30;99.90;;;;;;6315223;22;36504;-80
2023/01/09 17:12:21;;;;;;;13.97;2.63;;;8.20;99.90;;;;;;6319195;22;36693;-80
2023/01/09 17:14:48;;;;;;;20.87;2.80;;;8.20;99.90;;;;;;6314725;22;38168;-80
2023/01/09 17:17:15;;;;;;;11.87;2.90;;;8.20;99.90;;;;;;6340668;22;37185;-80
2023/01/09 17:19:42;;;;;;;13.20;3.30;;;8.30;99.90;;;;;;6346337;22;37850;-80
2023/01/09 17:22:08;;;;;;;10.20;3.20;;;8.40;99.90;;;;;;6342671;22;37388;-80
2023/01/09 17:30:18;;;;;;;11.77;2.70;;;8.40;99.90;;;;;;6345151;22;38445;-80
2023/01/09 17:32:45;;;;;;;22.70;4.80;;;8.50;99.90;;;;;;6351014;22;38731;-80
2023/01/09 17:35:12;;;;;;;11.10;2.53;;;8.50;99.90;;;;;;6361243;22;39475;-81